KWRL/WRL METAR and TAF weather

Enter ICAO airport designator
Station Type Date Time Source
KWRL METAR 2022/01/19 19:53 UTC NOAA

KWRL 191953Z AUTO 02005KT 3SM -SN OVC035 M09/M13 A3033 RMK AO2 SLP339 P0000 T10941133


Station Type Date Time Source
KWRL Decoded METAR 2022/01/19 19:53 UTC NOAA

WORLAND MUNICIPAL AIRPORT, WY, United States (KWRL) 43-58N 107-57W 1271M
Jan 19, 2022 - 02:53 PM EST / 2022.01.19 1953 UTC
Wind: from the NNE (020 degrees) at 6 MPH (5 KT):0
Visibility: 3 mile(s):0
Sky conditions: overcast
Weather: light snow
Precipitation last hour: A trace
Temperature: 15.1 F (-9.4 C)
Windchill: 6 F (-14 C):1
Dew Point: 8.1 F (-13.3 C)
Relative Humidity: 73%
Pressure (altimeter): 30.33 in. Hg (1027 hPa)
ob: KWRL 191953Z AUTO 02005KT 3SM -SN OVC035 M09/M13 A3033 RMK AO2 SLP339 P0000 T10941133
cycle: 20

Station Type Date Time Source
KWRL TAF 2022/01/19 18:33 UTC NOAA

TAF KWRL 191731Z 1918/2018 VRB05KT P6SM VCSH BKN025
TEMPO 1918/1920 3SM -SN OVC025
FM200000 VRB05KT P6SM BKN040
FM200500 VRB05KT P6SM VCFG FEW001 SCT040 BKN100
FM201200 13006KT P6SM BKN100

Example: see airport list